Terminal Aerodrome Forecast
Issued by NWS

Home | Current Version | Previous Version | Text Only | Print | Product List | Glossary On
Versions: 1 2 3 4 5 6 7 8 9 10 11 12 13 14 15 16
000
FTUS43 KPAH 261534 AAA
TAFOWB
TAF AMD
KOWB 261534Z 2616/2712 18013KT P6SM SCT025 BKN060
     FM270300 18012G22KT P6SM VCTS BKN025CB PROB30 2704/2708 3SM
      TSRA OVC015CB
     FM270900 23011G17KT P6SM BKN025=

USA.gov is the U.S. government's official web portal to all federal, state and local government web resources and services.